Weather observations for the past three days for
Reedsburg Municipal Airport
Imperial (Metric)
Date Time (cdt) Wind (mph) Vis. (mi.) Weather Sky Cond. Temperature (ºF) Relative Humidity Wind Chill (°F) Heat Index (°F) Pressure Precipitation (in)
Air Dwpt 6 hour altimeter (in) sea level (mb) 1 hr 3 hr 6 hr
Max. Min.
05 19:35 NW 10 10.00 Fair CLR 49.6 21.2 33% 46 29.81 0.0
05 19:15 NW 10 10.00 Partly Cloudy SCT080 50 21.4 32% 46 29.81 0.0
05 18:55 NW 9 10.00 Partly Cloudy SCT080 50.9 21.2 56.5 50.7 31% 29.81 0.0
05 18:35 W 13 G 21 10.00 Mostly Cloudy BKN080 52.2 21.4 30% 29.81 0.0
05 18:15 NW 13 G 20 10.00 Mostly Cloudy BKN080 54.7 21.7 28% 29.81 0.0
05 17:55 NW 13 G 24 10.00 Partly Cloudy SCT070 53.6 20.8 28% 29.81 0.0
05 17:35 NW 12 G 22 10.00 Mostly Cloudy BKN070 54.7 21.7 28% 29.8 0.0
05 17:15 W 14 G 21 10.00 Mostly Cloudy BKN070 54.9 21.6 27% 29.8 0.0
05 16:55 NW 9 10.00 Mostly Cloudy BKN070 55.2 23.2 29% 29.8 0.0
05 16:35 W 12 G 24 10.00 Mostly Cloudy BKN070 55.8 22.3 27% 29.8 0.0
05 16:15 W 14 G 26 10.00 Partly Cloudy SCT070 55.4 22.8 28% 29.8 0.0
05 15:35 W 20 G 30 10.00 Fair CLR 55.6 22.1 27% 29.81 0.0
05 15:15 W 16 G 29 10.00 Fair CLR 55.2 21 26% 29.81 0.0
05 14:55 W 16 G 24 10.00 Fair CLR 55.9 20.5 25% 29.81 0.0
05 14:35 NW 18 G 28 10.00 Fair CLR 55 21.6 27% 29.81 0.0
05 14:15 W 15 G 24 10.00 Fair CLR 55.2 21.2 27% 29.81 0.0
05 13:55 W 9 G 23 10.00 Partly Cloudy SCT075 54.7 19.9 26% 29.81 0.0
05 13:35 W 20 G 24 10.00 Partly Cloudy SCT075 54.7 19.8 25% 29.81 0.0
05 13:15 W 16 G 23 10.00 Partly Cloudy SCT075 53.4 21.4 29% 29.8 0.0
05 12:55 W 18 G 25 10.00 Fair CLR 54.1 21.7 54.3 43.3 28% 29.81 0.0
05 12:35 W 15 G 22 10.00 Partly Cloudy SCT070 54 20.1 27% 29.8 0.0
05 12:15 W 14 G 22 10.00 Partly Cloudy SCT070 53.6 21.6 29% 29.8 0.0
05 11:55 NW 17 G 23 10.00 Partly Cloudy SCT070 52.3 19.6 28% 29.8 0.0
05 11:35 W 14 G 23 10.00 Partly Cloudy SCT070 52.3 20.7 29% 29.8 0.0
05 11:15 NW 17 G 22 10.00 Partly Cloudy SCT070 51.8 20.1 29% 29.8 0.0
05 10:55 NW 13 G 22 10.00 Partly Cloudy SCT070 51.3 19.8 29% 29.8 0.0
05 10:15 W 15 G 21 10.00 Partly Cloudy SCT060 50.2 21 32% 29.79 0.0
05 09:55 W 12 G 18 10.00 Fair CLR 49.8 21.6 33% 46 29.8 0.0
05 09:35 W 9 G 20 10.00 Fair CLR 49.1 23.9 37% 46 29.8 0.0
05 09:15 NW 12 G 18 10.00 Fair CLR 48.7 25.7 41% 44 29.8 0.0
05 08:55 W 9 10.00 Fair CLR 48.4 26.4 42% 45 29.8 0.0
05 08:35 W 13 10.00 Fair CLR 47.5 25.5 42% 43 29.8 0.0
05 08:15 NW 8 10.00 Fair CLR 46.8 25.7 44% 43 29.8 0.0
05 07:55 NW 13 10.00 Fair CLR 45.9 25 44% 41 29.8 0.0
05 07:35 W 10 10.00 Fair CLR 45.3 26.1 47% 41 29.8 0.0
05 07:15 W 8 10.00 Fair CLR 44.6 26.2 49% 41 29.78 0.0
05 06:55 W 6 10.00 Fair CLR 43.2 26.4 49.6 40.6 52% 40 29.77 0.0
05 06:35 W 6 10.00 Fair CLR 41.9 25.7 53% 39 29.74 0.0
05 06:15 W 6 10.00 Fair CLR 41 25 53% 38 29.73 0.0
05 05:55 W 3 10.00 Fair CLR 40.6 25.3 55% 29.74 0.0
05 05:35 W 6 10.00 Fair CLR 41.4 25.3 53% 38 29.74 0.0
05 05:15 W 5 10.00 Fair CLR 42.3 25.2 51% 40 29.74 0.0
05 04:55 SW 5 10.00 Fair CLR 43 25 49% 41 29.73 0.0
05 04:35 SW 5 10.00 Fair CLR 43.7 25.2 48% 42 29.72 0.0
05 04:15 W 3 10.00 Fair CLR 44.2 25.3 47% 29.72 0.0
05 03:55 W 3 10.00 Fair CLR 44.4 25.3 47% 29.71 0.0
05 03:35 SW 5 10.00 Fair CLR 44.6 25.3 47% 43 29.71 0.0
05 03:15 W 5 10.00 Fair CLR 45.1 24.8 45% 43 29.7 0.0
05 02:55 NW 6 10.00 Fair CLR 45.7 24.8 44% 43 29.69 0.0
05 02:35 NW 6 10.00 Fair CLR 46.2 25 43% 44 29.68 0.0
05 02:15 NW 8 10.00 Fair CLR 46.9 24.6 42% 44 29.68 0.0
05 01:55 NW 13 G 20 10.00 Fair CLR 47.5 23.7 39% 43 29.68 0.0
05 01:35 NW 14 G 20 10.00 Fair CLR 48.4 23.2 37% 43 29.68 0.0
05 01:15 NW 16 G 26 10.00 Fair CLR 49.1 23.5 37% 44 29.68 0.0
05 00:30 NW 10 G 18 10.00 Fair CLR 51.1 25.7 37% 29.66 0.0
05 00:15 NW 15 G 26 10.00 Fair CLR 51.4 25.5 37% 29.66 0.0
04 23:55 NW 15 G 23 10.00 Fair CLR 51.8 26.6 38% 29.65 0.0
04 23:15 NW 12 10.00 Fair CLR 54 29.8 40% 29.62 0.0
04 22:55 NW 15 G 22 10.00 Fair CLR 55 30 38% 29.61 0.0
04 22:30 NW 10 G 17 10.00 Fair CLR 56.3 29.3 36% 29.6 0.0
04 22:15 NW 15 G 23 10.00 Fair CLR 56.5 29.3 35% 29.59 0.0
04 21:55 W 8 G 17 10.00 Fair CLR 57 29.5 35% 29.58 0.0
04 21:35 W 13 G 17 10.00 Fair CLR 57 30 36% 29.57 0.0
04 21:15 W 9 G 18 10.00 Fair CLR 57.9 29.3 34% 29.55 0.0
04 20:55 W 10 G 22 10.00 Partly Cloudy SCT110 58.8 28.4 31% 29.53 0.0
04 20:35 NW 17 G 24 10.00 Partly Cloudy SCT110 60.3 26.6 28% 29.51 0.0
04 20:15 W 13 G 26 10.00 Partly Cloudy SCT110 61.5 23 23% 29.52 0.0
04 19:55 W 18 G 29 10.00 Partly Cloudy SCT110 62.6 23 22% 29.52 0.0
04 19:35 W 14 G 26 10.00 Fair CLR 63 26.6 25% 29.51 0.0
04 19:15 W 20 G 28 10.00 Fair CLR 63.5 26.4 24% 29.5 0.0
04 18:55 W 20 G 30 10.00 Partly Cloudy SCT120 64.4 28.9 79 64.4 26% 29.49 0.0
04 18:35 W 14 10.00 Overcast OVC120 65.3 30.6 27% 29.49 0.0
04 18:15 W 15 G 24 10.00 Mostly Cloudy BKN120 66.9 30.6 26% 29.48 0.0
04 17:55 W 17 G 25 10.00 Partly Cloudy SCT120 69.1 32.7 26% 29.47 0.0
04 17:35 NW 16 G 28 10.00 Fair CLR 70.3 33.3 25% 29.46 0.0
04 17:15 W 15 G 23 10.00 Fair CLR 73.4 36 26% 29.45 0.0
04 16:55 W 16 G 35 10.00 Fair CLR 73 37.2 27% 29.44 0.0
04 16:35 W 20 G 26 10.00 Fair CLR 73.6 39 29% 29.44 0.0
04 16:15 W 20 G 29 10.00 Partly Cloudy SCT085 74.3 39.9 29% 29.43 0.0
04 15:55 W 13 G 26 10.00 Partly Cloudy SCT085 SCT120 77.2 42.1 29% 78 29.42 0.0
04 15:35 W 25 G 35 10.00 Fair and Breezy CLR 78.1 40.5 26% 78 29.42 0.0
04 14:55 W 23 G 32 10.00 Partly Cloudy and Breezy SCT100 SCT120 78.4 39.2 25% 78 29.42 0.0
04 14:35 W 23 G 29 10.00 Mostly Cloudy and Breezy SCT100 BKN120 76.8 38.7 25% 77 29.42 0.0
04 14:15 W 16 G 29 10.00 Partly Cloudy SCT100 SCT120 78.8 40.6 26% 78 29.42 0.0
04 13:55 SW 24 G 31 10.00 Partly Cloudy and Breezy SCT100 77.5 39.6 26% 78 29.43 0.0
04 13:35 SW 20 G 28 10.00 Mostly Cloudy BKN100 77.2 39.6 26% 77 29.42 0.0
04 13:15 SW 21 G 32 10.00 Partly Cloudy and Breezy SCT090 76.8 39.7 26% 77 29.43 0.0
04 12:55 W 23 G 32 10.00 Fair and Breezy CLR 76.8 39.7 77.4 54.1 26% 77 29.43 0.0
04 12:35 SW 21 G 31 10.00 Partly Cloudy and Breezy SCT090 SCT100 77 39.7 26% 77 29.43 0.0
04 12:15 W 20 G 29 10.00 Partly Cloudy SCT090 75.6 38.3 26% 77 29.44 0.0
04 11:55 SW 20 G 26 10.00 Partly Cloudy SCT090 76.3 39 26% 77 29.45 0.0
04 11:35 SW 20 G 26 10.00 Fair CLR 75.7 38.1 26% 77 29.46 0.0
04 11:15 SW 15 G 24 10.00 Partly Cloudy SCT100 74.3 38.3 27% 29.46 0.0
04 10:55 SW 20 G 26 10.00 Fair CLR 73 37.6 28% 29.46 0.0
04 10:35 SW 25 G 30 10.00 Fair and Breezy CLR 72.1 36.5 27% 29.47 0.0
04 10:15 SW 21 G 31 10.00 Fair and Breezy CLR 70.9 35.8 28% 29.47 0.0
04 09:55 SW 22 G 29 10.00 Fair and Breezy CLR 68.9 36.1 30% 29.48 0.0
04 09:35 SW 14 G 24 10.00 Fair CLR 67.6 37 33% 29.49 0.0
04 09:15 SW 13 10.00 Fair CLR 65.7 36.7 34% 29.5 0.0
04 08:55 SW 12 10.00 Fair CLR 64.4 36.5 36% 29.5 0.0
04 08:35 SW 16 10.00 Fair CLR 63 35.4 36% 29.52 0.0
04 08:15 SW 14 10.00 Fair CLR 61.9 35.2 37% 29.52 0.0
04 07:55 SW 9 10.00 Fair CLR 59.4 36.5 43% 29.52 0.0
04 07:35 S 9 10.00 Fair CLR 57.4 34.9 43% 29.52 0.0
04 07:15 S 10 10.00 Fair CLR 55.8 34.7 45% 29.53 0.0
04 06:55 SW 9 10.00 Fair CLR 54 34.5 54 42.8 48% 29.54 0.0
04 06:35 SW 10 10.00 Fair CLR 52.9 34.3 50% 29.54 0.0
04 06:15 SW 9 10.00 Fair CLR 51.6 35.1 53% 29.54 0.0
04 05:55 SW 7 10.00 Fair CLR 49.6 34.5 56% 47 29.54 0.0
04 05:35 Calm 10.00 Fair CLR 47.8 34.3 60% 29.54 0.0
04 05:15 Calm 10.00 Fair CLR 45.9 35.2 67% 29.55 0.0
04 04:55 Calm 10.00 Fair CLR 45.5 35.2 67% 29.56 0.0
04 04:35 Calm 10.00 Fair CLR 44.8 35.6 70% 29.57 0.0
04 04:15 Calm 10.00 Fair CLR 44.2 35.8 72% 29.57 0.0
04 03:55 Calm 10.00 Fair CLR 44.8 36 71% 29.58 0.0
04 03:35 Calm 10.00 Fair CLR 44.6 36.3 73% 29.58 0.0
04 03:15 Calm 10.00 Fair CLR 43.9 37.2 77% 29.59 0.0
04 02:55 Calm 10.00 Fair CLR 43.3 37.6 80% 29.6 0.0
04 02:35 Calm 10.00 Fair CLR 44.6 37.4 76% 29.6 0.0
04 02:15 Calm 10.00 Fair CLR 46.6 36.5 68% 29.61 0.0
04 01:55 Calm 10.00 Fair CLR 46.8 37.2 70% 29.62 0.0
04 01:35 Calm 10.00 Fair CLR 46.4 37.4 71% 29.63 0.0
04 01:15 Calm 10.00 Fair CLR 47.7 37.6 68% 29.64 0.0
04 00:55 Calm 10.00 Fair CLR 47.5 37.4 70.7 47.5 68% 29.65 0.0
04 00:35 Calm 10.00 Fair CLR 49.3 37.6 64% 29.65 0.0
04 00:15 Calm 10.00 Fair CLR 50.5 37 60% 29.66 0.0
03 23:55 Calm 10.00 Fair CLR 51.4 37.2 58% 29.66 0.0
03 23:35 Calm 10.00 Fair CLR 51.6 37.8 59% 29.66 0.0
03 23:15 Calm 10.00 Fair CLR 53.2 36 52% 29.66 0.0
03 22:55 Calm 10.00 Fair CLR 56.5 34.7 44% 29.67 0.0
03 22:35 W 3 10.00 Fair CLR 58.1 34.2 41% 29.67 0.0
03 22:15 Calm 10.00 Fair CLR 59.5 34.2 39% 29.67 0.0
03 21:55 Calm 10.00 Fair CLR 59 33.8 39% 29.67 0.0
03 21:30 W 3 10.00 Fair CLR 61 33.8 36% 29.67 0.0
03 21:15 W 3 10.00 Fair CLR 61 33.8 36% 29.66 0.0
03 20:55 W 5 10.00 Fair CLR 62.2 33.8 35% 29.66 0.0
03 20:35 W 3 10.00 Fair CLR 63.5 33.3 32% 29.66 0.0
03 20:15 W 5 10.00 Fair CLR 64.6 33.8 32% 29.65 0.0
03 19:55 W 8 10.00 Fair CLR 66.4 32.5 28% 29.64 0.0
03 19:35 W 9 10.00 Fair CLR 68 31.3 26% 29.64 0.0
03 19:15 W 14 G 18 10.00 Fair CLR 69.8 31.1 24% 29.64 0.0
03 18:55 W 12 G 17 10.00 Fair CLR 70.9 32 72.5 64.9 24% 29.64 0.0
03 18:35 W 12 G 17 10.00 Fair CLR 71.1 34.3 26% 29.63 0.0
03 18:15 W 13 G 18 10.00 Fair CLR 71.6 34.7 26% 29.63 0.0
03 17:55 W 10 G 16 10.00 Fair CLR 71.8 35.4 26% 29.62 0.0
03 17:35 W 8 G 20 10.00 Fair CLR 72 36 27% 29.63 0.0
03 17:15 W 9 10.00 Fair CLR 72 36.3 27% 29.64 0.0
03 16:55 W 16 10.00 Fair CLR 72 36.7 28% 29.64 0.0
03 16:35 W 14 G 21 10.00 Partly Cloudy SCT075 71.6 37.8 29% 29.64 0.0
03 16:15 W 14 G 20 10.00 Fair CLR 71.6 38.7 30% 29.64 0.0
03 15:55 W 12 G 20 10.00 Fair CLR 71.4 39 31% 29.65 0.0
03 15:35 SW 12 G 18 10.00 Fair CLR 70.5 39 32% 29.65 0.0
03 15:15 SW 13 G 20 10.00 Fair CLR 70 39.2 33% 29.66 0.0
03 14:55 SW 10 G 18 10.00 Fair CLR 69.6 38.8 33% 29.67 0.0
03 14:35 W 10 G 16 10.00 Fair CLR 68.9 39.7 35% 29.68 0.0
03 14:15 SW 8 G 17 10.00 Fair CLR 67.8 38.5 34% 29.68 0.0
03 13:55 SW 13 G 20 10.00 Fair CLR 67.3 39.4 36% 29.69 0.0
03 13:35 SW 7 G 20 10.00 Fair CLR 66.4 39 37% 29.69 0.0
03 13:15 SW 10 G 18 10.00 Fair CLR 65.7 38.3 37% 29.7 0.0
03 12:55 SW 10 G 18 10.00 Fair CLR 65.1 37.6 65.1 53.6 36% 29.7 0.0
03 12:35 W 16 G 21 10.00 Fair CLR 64.2 36.7 36% 29.71 0.0
03 12:15 W 13 G 21 10.00 Fair CLR 63.9 37.2 37% 29.72 0.0
03 11:55 SW 14 G 22 10.00 Fair CLR 63.3 37.6 39% 29.72 0.0
03 11:35 SW 17 G 24 10.00 Fair CLR 63.1 36.5 37% 29.73 0.0
03 11:15 SW 17 G 29 10.00 Fair CLR 62.2 38.3 41% 29.73 0.0
03 10:55 SW 20 G 28 10.00 Fair CLR 61.7 36.9 40% 29.74 0.0
03 10:35 SW 14 G 23 10.00 Fair CLR 61.9 37.6 41% 29.74 0.0
03 10:15 S 20 G 28 10.00 Fair CLR 61 38.8 44% 29.75 0.0
03 09:55 SW 15 G 26 10.00 Fair CLR 59.2 38.8 47% 29.76 0.0
03 09:35 S 21 G 26 10.00 Fair and Breezy CLR 59.7 37.9 45% 29.77 0.0
03 09:15 S 20 G 24 10.00 Mostly Cloudy BKN090 58.8 38.3 47% 29.77 0.0
03 08:55 S 14 G 23 10.00 Overcast OVC090 56.7 38.1 50% 29.77 0.0
03 08:35 SW 13 G 28 10.00 Mostly Cloudy BKN090 57.4 37.9 48% 29.78 0.0
03 08:15 SW 16 G 22 10.00 Partly Cloudy SCT080 56.1 38.5 52% 29.78 0.0
03 07:55 SW 18 G 26 10.00 Fair CLR 55.6 37.4 51% 29.78 0.0
03 07:35 SW 18 G 26 10.00 Partly Cloudy SCT095 54.7 37.2 52% 29.79 0.0
03 07:15 SW 20 G 25 10.00 Mostly Cloudy BKN095 BKN120 54 36.3 51% 29.79 0.0
03 06:55 SW 17 G 26 10.00 Mostly Cloudy SCT100 BKN120 53.8 35.6 54 51.4 50% 29.8 0.0
03 06:35 SW 16 G 22 10.00 Overcast OVC100 54 35.1 49% 29.8 0.0
03 06:15 SW 9 G 16 10.00 Overcast SCT060 SCT080 OVC090 52.7 33.4 48% 29.81 0.0
03 05:55 SW 10 10.00 Overcast SCT055 BKN080 OVC100 52.2 31.6 46% 29.81 0.0
03 05:35 SW 9 G 17 10.00 Mostly Cloudy SCT065 SCT075 BKN090 51.8 30.4 44% 29.81 0.0
03 05:15 SW 9 10.00 Overcast OVC090 52.2 29.8 42% 29.82 0.0
03 04:55 SW 13 G 18 10.00 Overcast BKN090 OVC110 52 29.8 43% 29.81 0.0
03 04:35 SW 10 10.00 Overcast OVC100 51.8 29.5 42% 29.82 0.0
03 04:15 SW 10 G 17 10.00 Overcast OVC100 51.8 28.9 41% 29.84 0.0
03 03:55 SW 10 G 17 10.00 Overcast OVC100 51.6 29.3 42% 29.84 0.0
03 03:35 SW 8 G 17 10.00 Overcast OVC110 52 28.2 40% 29.84 0.0
03 03:15 SW 8 10.00 Overcast OVC110 51.8 28 40% 29.85 0.0
03 02:55 SW 7 10.00 Overcast OVC110 51.8 27.9 40% 29.85 0.0
03 02:35 SW 10 G 16 10.00 Mostly Cloudy BKN120 52 27.5 39% 29.85 0.0
03 02:15 SW 9 10.00 Partly Cloudy SCT110 52 27.1 38% 29.86 0.0
03 01:55 SW 10 G 17 10.00 Partly Cloudy SCT120 52 26.6 37% 29.86 0.0
03 01:35 SW 13 10.00 Partly Cloudy SCT120 51.6 26.4 38% 29.87 0.0
03 01:15 SW 12 10.00 Partly Cloudy SCT120 52 25.9 36% 29.87 0.0
03 00:55 SW 9 10.00 Partly Cloudy SCT100 51.6 25.5 59.4 50.4 36% 29.88 0.0
03 00:35 SW 9 10.00 Overcast OVC100 52.3 25.9 36% 29.88 0.0
03 00:15 SW 8 10.00 Overcast OVC100 53.1 25.7 35% 29.88 0.0
02 23:55 SW 8 10.00 Overcast OVC100 52.7 26.2 36% 29.89 0.0
02 23:35 SW 9 10.00 Overcast OVC100 52.9 26.8 36% 29.89 0.0
02 23:15 SW 8 10.00 Overcast OVC100 52.9 27.1 37% 29.89 0.0
02 22:55 SW 9 10.00 Overcast OVC100 52.9 27.5 38% 29.9 0.0
02 22:35 S 7 10.00 Overcast OVC100 52.3 28.4 40% 29.91 0.0
02 22:15 SW 3 10.00 Overcast OVC100 50.5 28.6 43% 29.91 0.0
02 21:55 S 5 10.00 Partly Cloudy SCT110 50.9 27.9 41% 29.92 0.0
02 21:35 S 3 10.00 Fair CLR 51.3 26.8 39% 29.92 0.0
02 21:15 Calm 10.00 Partly Cloudy SCT100 52.2 27.1 38% 29.92 0.0
02 20:55 Calm 10.00 Partly Cloudy SCT100 52.7 26.6 36% 29.92 0.0
02 20:35 SW 3 10.00 Partly Cloudy SCT110 53.6 26.2 35% 29.92 0.0
02 20:15 SW 5 10.00 Partly Cloudy SCT100 54.5 26.2 34% 29.92 0.0
02 19:55 SW 5 10.00 Fair CLR 55.2 26.4 33% 29.92 0.0
Date Time (cdt) Wind (mph) Vis. (mi.) Weather Sky Cond. Air Dwpt Max. Min. Relative Humidity Wind Chill (°F) Heat Index (°F) altimeter (in) sea level (mb) 1 hr 3 hr 6 hr
6 hour
Temperature (ºF) Pressure Precipitation (in)